sensor_id;sensor_type;location;lat;lon;timestamp;pressure;altitude;pressure_sealevel;temperature
70415;BMP280;57837;52.064;113.478;2023-05-10T00:02:45;93895.81;;;23.25
70415;BMP280;57837;52.064;113.478;2023-05-10T00:05:49;93883.16;;;24.44
70415;BMP280;57837;52.064;113.478;2023-05-10T00:08:53;93886.97;;;24.87
70415;BMP280;57837;52.064;113.478;2023-05-10T00:11:57;93883.81;;;25.18
70415;BMP280;57837;52.064;113.478;2023-05-10T00:15:01;93887.72;;;25.10
70415;BMP280;57837;52.064;113.478;2023-05-10T00:18:06;93882.44;;;25.32
70415;BMP280;57837;52.064;113.478;2023-05-10T00:21:10;93878.50;;;25.64
70415;BMP280;57837;52.064;113.478;2023-05-10T00:24:14;93872.47;;;25.78
70415;BMP280;57837;52.064;113.478;2023-05-10T00:27:18;93870.09;;;26.05
70415;BMP280;57837;52.064;113.478;2023-05-10T00:30:22;93863.19;;;26.10
70415;BMP280;57837;52.064;113.478;2023-05-10T00:33:25;93867.31;;;26.68
70415;BMP280;57837;52.064;113.478;2023-05-10T00:36:28;93867.03;;;26.56
70415;BMP280;57837;52.064;113.478;2023-05-10T00:39:32;93862.38;;;25.84
70415;BMP280;57837;52.064;113.478;2023-05-10T00:42:36;93858.13;;;26.36
70415;BMP280;57837;52.064;113.478;2023-05-10T00:45:41;93861.09;;;25.93
70415;BMP280;57837;52.064;113.478;2023-05-10T00:48:46;93860.84;;;25.59
70415;BMP280;57837;52.064;113.478;2023-05-10T00:51:50;93851.16;;;26.41
70415;BMP280;57837;52.064;113.478;2023-05-10T00:54:54;93848.34;;;26.71
70415;BMP280;57837;52.064;113.478;2023-05-10T00:57:58;93836.94;;;26.78
70415;BMP280;57837;52.064;113.478;2023-05-10T01:01:02;93834.97;;;26.22
70415;BMP280;57837;52.064;113.478;2023-05-10T01:04:06;93828.03;;;26.34
70415;BMP280;57837;52.064;113.478;2023-05-10T01:07:10;93834.31;;;26.46
70415;BMP280;57837;52.064;113.478;2023-05-10T01:10:14;93829.47;;;26.84
70415;BMP280;57837;52.064;113.478;2023-05-10T01:13:34;93818.03;;;27.16
70415;BMP280;57837;52.064;113.478;2023-05-10T01:16:40;93815.19;;;26.72
70415;BMP280;57837;52.064;113.478;2023-05-10T01:19:44;93807.16;;;27.04
70415;BMP280;57837;52.064;113.478;2023-05-10T01:26:58;93801.66;;;27.44
70415;BMP280;57837;52.064;113.478;2023-05-10T01:30:01;93796.03;;;28.11
70415;BMP280;57837;52.064;113.478;2023-05-10T01:36:51;93784.59;;;28.18
70415;BMP280;57837;52.064;113.478;2023-05-10T01:40:06;93784.34;;;28.23
70415;BMP280;57837;52.064;113.478;2023-05-10T01:43:19;93768.13;;;29.04
70415;BMP280;57837;52.064;113.478;2023-05-10T01:46:38;93762.91;;;28.67
70415;BMP280;57837;52.064;113.478;2023-05-10T01:49:52;93758.88;;;29.05
70415;BMP280;57837;52.064;113.478;2023-05-10T01:52:58;93754.84;;;28.12
70415;BMP280;57837;52.064;113.478;2023-05-10T01:56:02;93743.63;;;27.87
70415;BMP280;57837;52.064;113.478;2023-05-10T01:59:12;93740.75;;;29.51
70415;BMP280;57837;52.064;113.478;2023-05-10T02:02:20;93731.78;;;29.37
70415;BMP280;57837;52.064;113.478;2023-05-10T02:05:24;93732.06;;;29.03
70415;BMP280;57837;52.064;113.478;2023-05-10T02:08:29;93725.19;;;29.38
70415;BMP280;57837;52.064;113.478;2023-05-10T02:11:33;93730.72;;;30.11
70415;BMP280;57837;52.064;113.478;2023-05-10T02:14:38;93719.06;;;29.76
70415;BMP280;57837;52.064;113.478;2023-05-10T02:17:44;93711.50;;;30.03
70415;BMP280;57837;52.064;113.478;2023-05-10T02:20:52;93709.03;;;29.86
70415;BMP280;57837;52.064;113.478;2023-05-10T02:23:57;93704.78;;;29.62
70415;BMP280;57837;52.064;113.478;2023-05-10T02:27:03;93694.50;;;29.98
70415;BMP280;57837;52.064;113.478;2023-05-10T02:30:10;93695.13;;;29.87
70415;BMP280;57837;52.064;113.478;2023-05-10T02:33:14;93695.22;;;30.51
70415;BMP280;57837;52.064;113.478;2023-05-10T02:36:21;93681.72;;;30.70
70415;BMP280;57837;52.064;113.478;2023-05-10T02:39:24;93685.69;;;30.48
70415;BMP280;57837;52.064;113.478;2023-05-10T02:42:35;93674.84;;;30.67
70415;BMP280;57837;52.064;113.478;2023-05-10T02:45:39;93678.13;;;30.56
70415;BMP280;57837;52.064;113.478;2023-05-10T02:48:43;93674.06;;;30.76
70415;BMP280;57837;52.064;113.478;2023-05-10T02:51:51;93661.69;;;31.48
70415;BMP280;57837;52.064;113.478;2023-05-10T02:55:01;93658.38;;;30.82
70415;BMP280;57837;52.064;113.478;2023-05-10T02:58:06;93652.44;;;30.30
70415;BMP280;57837;52.064;113.478;2023-05-10T03:01:10;93657.13;;;30.62
70415;BMP280;57837;52.064;113.478;2023-05-10T03:04:14;93653.66;;;30.38
70415;BMP280;57837;52.064;113.478;2023-05-10T03:07:18;93651.94;;;30.43
70415;BMP280;57837;52.064;113.478;2023-05-10T03:10:27;93644.28;;;31.14
70415;BMP280;57837;52.064;113.478;2023-05-10T03:16:52;93638.81;;;31.12
70415;BMP280;57837;52.064;113.478;2023-05-10T03:20:10;93630.88;;;31.03
70415;BMP280;57837;52.064;113.478;2023-05-10T03:26:25;93613.66;;;30.50
70415;BMP280;57837;52.064;113.478;2023-05-10T03:29:43;93613.69;;;30.19
70415;BMP280;57837;52.064;113.478;2023-05-10T03:32:49;93604.41;;;29.68
70415;BMP280;57837;52.064;113.478;2023-05-10T03:35:53;93595.22;;;29.50
70415;BMP280;57837;52.064;113.478;2023-05-10T03:38:57;93596.81;;;29.34
70415;BMP280;57837;52.064;113.478;2023-05-10T03:42:01;93590.38;;;29.27
70415;BMP280;57837;52.064;113.478;2023-05-10T03:45:06;93583.22;;;29.20
70415;BMP280;57837;52.064;113.478;2023-05-10T03:48:10;93585.22;;;29.51
70415;BMP280;57837;52.064;113.478;2023-05-10T03:51:17;93576.09;;;29.84
70415;BMP280;57837;52.064;113.478;2023-05-10T03:54:21;93562.66;;;29.73
70415;BMP280;57837;52.064;113.478;2023-05-10T03:57:25;93558.16;;;29.75
70415;BMP280;57837;52.064;113.478;2023-05-10T04:00:29;93553.88;;;29.82
70415;BMP280;57837;52.064;113.478;2023-05-10T04:03:34;93558.41;;;30.00
70415;BMP280;57837;52.064;113.478;2023-05-10T04:06:40;93547.72;;;30.00
70415;BMP280;57837;52.064;113.478;2023-05-10T04:09:44;93541.06;;;29.90
70415;BMP280;57837;52.064;113.478;2023-05-10T04:12:48;93527.16;;;29.70
70415;BMP280;57837;52.064;113.478;2023-05-10T04:15:51;93523.00;;;29.48
70415;BMP280;57837;52.064;113.478;2023-05-10T04:18:55;93525.13;;;29.50
70415;BMP280;57837;52.064;113.478;2023-05-10T04:21:59;93514.78;;;29.65
70415;BMP280;57837;52.064;113.478;2023-05-10T04:25:04;93504.28;;;29.27
70415;BMP280;57837;52.064;113.478;2023-05-10T04:28:08;93501.06;;;29.28
70415;BMP280;57837;52.064;113.478;2023-05-10T04:31:12;93495.19;;;29.51
70415;BMP280;57837;52.064;113.478;2023-05-10T04:34:16;93486.13;;;29.66
70415;BMP280;57837;52.064;113.478;2023-05-10T04:37:19;93482.25;;;29.57
70415;BMP280;57837;52.064;113.478;2023-05-10T04:40:24;93485.72;;;29.38
70415;BMP280;57837;52.064;113.478;2023-05-10T04:43:29;93470.56;;;29.41
70415;BMP280;57837;52.064;113.478;2023-05-10T04:46:33;93466.75;;;29.04
70415;BMP280;57837;52.064;113.478;2023-05-10T04:49:37;93454.34;;;28.87
70415;BMP280;57837;52.064;113.478;2023-05-10T04:52:40;93455.38;;;29.13
70415;BMP280;57837;52.064;113.478;2023-05-10T04:55:45;93448.97;;;29.27
70415;BMP280;57837;52.064;113.478;2023-05-10T04:58:50;93442.56;;;29.21
70415;BMP280;57837;52.064;113.478;2023-05-10T05:01:54;93430.09;;;29.14
70415;BMP280;57837;52.064;113.478;2023-05-10T05:04:57;93435.50;;;29.25
70415;BMP280;57837;52.064;113.478;2023-05-10T05:08:01;93419.75;;;29.08
70415;BMP280;57837;52.064;113.478;2023-05-10T05:11:05;93415.16;;;28.90
70415;BMP280;57837;52.064;113.478;2023-05-10T05:14:09;93410.50;;;29.00
70415;BMP280;57837;52.064;113.478;2023-05-10T05:17:12;93405.22;;;29.21
70415;BMP280;57837;52.064;113.478;2023-05-10T05:20:16;93410.28;;;29.59
70415;BMP280;57837;52.064;113.478;2023-05-10T05:23:22;93388.03;;;29.87
70415;BMP280;57837;52.064;113.478;2023-05-10T05:26:28;93382.53;;;29.85
70415;BMP280;57837;52.064;113.478;2023-05-10T05:29:32;93387.97;;;29.76
70415;BMP280;57837;52.064;113.478;2023-05-10T05:32:36;93380.84;;;30.01
70415;BMP280;57837;52.064;113.478;2023-05-10T05:35:39;93374.16;;;30.12
70415;BMP280;57837;52.064;113.478;2023-05-10T05:38:43;93367.06;;;30.17
70415;BMP280;57837;52.064;113.478;2023-05-10T05:41:48;93360.03;;;30.00
70415;BMP280;57837;52.064;113.478;2023-05-10T05:44:52;93357.97;;;29.98
70415;BMP280;57837;52.064;113.478;2023-05-10T05:47:55;93342.75;;;29.89
70415;BMP280;57837;52.064;113.478;2023-05-10T05:51:00;93345.31;;;29.87
70415;BMP280;57837;52.064;113.478;2023-05-10T05:54:07;93332.03;;;29.78
70415;BMP280;57837;52.064;113.478;2023-05-10T05:57:11;93332.28;;;29.93
70415;BMP280;57837;52.064;113.478;2023-05-10T06:00:14;93339.38;;;30.00
70415;BMP280;57837;52.064;113.478;2023-05-10T06:03:20;93323.34;;;30.00
70415;BMP280;57837;52.064;113.478;2023-05-10T06:06:23;93316.44;;;30.19
70415;BMP280;57837;52.064;113.478;2023-05-10T06:09:27;93314.59;;;30.44
70415;BMP280;57837;52.064;113.478;2023-05-10T06:12:30;93319.34;;;30.34
70415;BMP280;57837;52.064;113.478;2023-05-10T06:15:34;93310.16;;;30.26
70415;BMP280;57837;52.064;113.478;2023-05-10T06:18:38;93310.63;;;30.22
70415;BMP280;57837;52.064;113.478;2023-05-10T06:21:42;93309.00;;;30.17
70415;BMP280;57837;52.064;113.478;2023-05-10T06:24:45;93304.81;;;30.14
70415;BMP280;57837;52.064;113.478;2023-05-10T06:27:49;93302.03;;;30.35
70415;BMP280;57837;52.064;113.478;2023-05-10T06:30:55;93297.25;;;30.45
70415;BMP280;57837;52.064;113.478;2023-05-10T06:33:59;93291.22;;;30.45
70415;BMP280;57837;52.064;113.478;2023-05-10T06:37:03;93284.72;;;30.48
70415;BMP280;57837;52.064;113.478;2023-05-10T06:40:07;93280.63;;;30.58
70415;BMP280;57837;52.064;113.478;2023-05-10T06:43:11;93271.31;;;30.59
70415;BMP280;57837;52.064;113.478;2023-05-10T06:46:15;93270.06;;;30.49
70415;BMP280;57837;52.064;113.478;2023-05-10T06:49:19;93274.94;;;30.64
70415;BMP280;57837;52.064;113.478;2023-05-10T06:52:23;93266.44;;;30.56
70415;BMP280;57837;52.064;113.478;2023-05-10T06:55:26;93258.78;;;30.39
70415;BMP280;57837;52.064;113.478;2023-05-10T06:58:30;93271.84;;;30.21
70415;BMP280;57837;52.064;113.478;2023-05-10T07:01:35;93262.19;;;29.93
70415;BMP280;57837;52.064;113.478;2023-05-10T07:04:39;93265.53;;;29.70
70415;BMP280;57837;52.064;113.478;2023-05-10T07:07:43;93275.53;;;29.49
70415;BMP280;57837;52.064;113.478;2023-05-10T07:10:47;93274.09;;;29.36
70415;BMP280;57837;52.064;113.478;2023-05-10T07:13:51;93266.56;;;29.32
70415;BMP280;57837;52.064;113.478;2023-05-10T07:16:55;93258.22;;;29.38
70415;BMP280;57837;52.064;113.478;2023-05-10T07:19:59;93264.34;;;29.29
70415;BMP280;57837;52.064;113.478;2023-05-10T07:23:03;93253.22;;;29.32
70415;BMP280;57837;52.064;113.478;2023-05-10T07:26:07;93257.75;;;29.41
70415;BMP280;57837;52.064;113.478;2023-05-10T07:29:11;93253.63;;;29.50
70415;BMP280;57837;52.064;113.478;2023-05-10T07:32:15;93258.09;;;29.48
70415;BMP280;57837;52.064;113.478;2023-05-10T07:35:19;93251.16;;;29.21
70415;BMP280;57837;52.064;113.478;2023-05-10T07:38:22;93252.53;;;28.90
70415;BMP280;57837;52.064;113.478;2023-05-10T07:41:26;93250.88;;;28.63
70415;BMP280;57837;52.064;113.478;2023-05-10T07:44:30;93248.19;;;28.42
70415;BMP280;57837;52.064;113.478;2023-05-10T07:47:34;93251.38;;;28.19
70415;BMP280;57837;52.064;113.478;2023-05-10T07:50:38;93246.41;;;28.04
70415;BMP280;57837;52.064;113.478;2023-05-10T07:53:42;93242.25;;;27.82
70415;BMP280;57837;52.064;113.478;2023-05-10T07:56:45;93246.47;;;27.76
70415;BMP280;57837;52.064;113.478;2023-05-10T07:59:50;93245.06;;;27.75
70415;BMP280;57837;52.064;113.478;2023-05-10T08:02:54;93252.19;;;27.82
70415;BMP280;57837;52.064;113.478;2023-05-10T08:05:58;93255.72;;;27.75
70415;BMP280;57837;52.064;113.478;2023-05-10T08:09:02;93244.53;;;27.76
70415;BMP280;57837;52.064;113.478;2023-05-10T08:12:06;93242.94;;;27.83
70415;BMP280;57837;52.064;113.478;2023-05-10T08:15:10;93238.50;;;27.76
70415;BMP280;57837;52.064;113.478;2023-05-10T08:18:14;93238.72;;;27.89
70415;BMP280;57837;52.064;113.478;2023-05-10T08:21:20;93243.34;;;27.98
70415;BMP280;57837;52.064;113.478;2023-05-10T08:24:25;93254.94;;;28.03
70415;BMP280;57837;52.064;113.478;2023-05-10T08:27:28;93239.28;;;27.97
70415;BMP280;57837;52.064;113.478;2023-05-10T08:30:32;93239.69;;;27.94
70415;BMP280;57837;52.064;113.478;2023-05-10T08:33:35;93237.56;;;28.02
70415;BMP280;57837;52.064;113.478;2023-05-10T08:36:39;93229.47;;;28.00
70415;BMP280;57837;52.064;113.478;2023-05-10T08:39:44;93228.34;;;27.93
70415;BMP280;57837;52.064;113.478;2023-05-10T08:43:06;93229.19;;;27.96
70415;BMP280;57837;52.064;113.478;2023-05-10T08:46:10;93231.50;;;27.71
70415;BMP280;57837;52.064;113.478;2023-05-10T08:49:17;93236.53;;;27.67
70415;BMP280;57837;52.064;113.478;2023-05-10T08:52:25;93229.13;;;27.55
70415;BMP280;57837;52.064;113.478;2023-05-10T08:55:29;93232.25;;;27.42
70415;BMP280;57837;52.064;113.478;2023-05-10T08:58:33;93226.78;;;27.31
70415;BMP280;57837;52.064;113.478;2023-05-10T09:01:37;93234.63;;;27.29
70415;BMP280;57837;52.064;113.478;2023-05-10T09:04:40;93230.56;;;27.18
70415;BMP280;57837;52.064;113.478;2023-05-10T09:07:45;93231.97;;;27.10
70415;BMP280;57837;52.064;113.478;2023-05-10T09:10:48;93227.06;;;27.06
70415;BMP280;57837;52.064;113.478;2023-05-10T09:13:52;93223.97;;;27.00
70415;BMP280;57837;52.064;113.478;2023-05-10T09:16:56;93223.88;;;26.98
70415;BMP280;57837;52.064;113.478;2023-05-10T09:20:01;93229.19;;;26.98
70415;BMP280;57837;52.064;113.478;2023-05-10T09:23:05;93225.13;;;26.97
70415;BMP280;57837;52.064;113.478;2023-05-10T09:26:10;93222.56;;;26.89
70415;BMP280;57837;52.064;113.478;2023-05-10T09:29:14;93254.88;;;26.76
70415;BMP280;57837;52.064;113.478;2023-05-10T09:32:19;93224.19;;;26.56
70415;BMP280;57837;52.064;113.478;2023-05-10T09:35:25;93234.38;;;26.50
70415;BMP280;57837;52.064;113.478;2023-05-10T09:41:53;93232.59;;;26.16
70415;BMP280;57837;52.064;113.478;2023-05-10T09:45:04;93246.53;;;26.07
70415;BMP280;57837;52.064;113.478;2023-05-10T09:48:08;93259.84;;;25.90
70415;BMP280;57837;52.064;113.478;2023-05-10T09:51:22;93254.63;;;25.82
70415;BMP280;57837;52.064;113.478;2023-05-10T09:54:26;93251.84;;;25.63
70415;BMP280;57837;52.064;113.478;2023-05-10T09:57:30;93259.25;;;25.65
70415;BMP280;57837;52.064;113.478;2023-05-10T10:00:41;93258.28;;;25.70
70415;BMP280;57837;52.064;113.478;2023-05-10T10:03:45;93265.31;;;25.75
70415;BMP280;57837;52.064;113.478;2023-05-10T10:06:59;93263.13;;;25.81
70415;BMP280;57837;52.064;113.478;2023-05-10T10:10:03;93258.28;;;25.70
70415;BMP280;57837;52.064;113.478;2023-05-10T10:13:07;93257.00;;;25.61
70415;BMP280;57837;52.064;113.478;2023-05-10T10:16:10;93262.91;;;25.52
70415;BMP280;57837;52.064;113.478;2023-05-10T10:19:14;93268.22;;;25.52
70415;BMP280;57837;52.064;113.478;2023-05-10T10:22:18;93265.19;;;25.56
70415;BMP280;57837;52.064;113.478;2023-05-10T10:25:22;93264.91;;;25.52
70415;BMP280;57837;52.064;113.478;2023-05-10T10:31:46;93269.09;;;25.38
70415;BMP280;57837;52.064;113.478;2023-05-10T10:34:51;93269.56;;;25.26
70415;BMP280;57837;52.064;113.478;2023-05-10T10:37:55;93261.91;;;25.13
70415;BMP280;57837;52.064;113.478;2023-05-10T10:41:09;93264.00;;;25.15
70415;BMP280;57837;52.064;113.478;2023-05-10T10:44:23;93260.66;;;25.14
70415;BMP280;57837;52.064;113.478;2023-05-10T10:47:29;93271.50;;;25.09
70415;BMP280;57837;52.064;113.478;2023-05-10T10:50:44;93266.66;;;25.15
70415;BMP280;57837;52.064;113.478;2023-05-10T10:53:49;93271.41;;;24.99
70415;BMP280;57837;52.064;113.478;2023-05-10T10:57:12;93273.94;;;24.90
70415;BMP280;57837;52.064;113.478;2023-05-10T11:03:28;93274.97;;;24.52
70415;BMP280;57837;52.064;113.478;2023-05-10T11:06:32;93277.78;;;24.47
70415;BMP280;57837;52.064;113.478;2023-05-10T11:09:39;93287.16;;;24.48
70415;BMP280;57837;52.064;113.478;2023-05-10T11:13:07;93294.75;;;24.44
70415;BMP280;57837;52.064;113.478;2023-05-10T11:19:17;93294.59;;;24.02
70415;BMP280;57837;52.064;113.478;2023-05-10T11:22:21;93301.72;;;23.84
70415;BMP280;57837;52.064;113.478;2023-05-10T11:25:28;93308.66;;;23.72
70415;BMP280;57837;52.064;113.478;2023-05-10T11:28:32;93298.63;;;23.55
70415;BMP280;57837;52.064;113.478;2023-05-10T11:31:42;93299.38;;;23.41
70415;BMP280;57837;52.064;113.478;2023-05-10T11:34:47;93295.31;;;23.32
70415;BMP280;57837;52.064;113.478;2023-05-10T11:37:51;93301.47;;;23.27
70415;BMP280;57837;52.064;113.478;2023-05-10T11:40:55;93301.84;;;23.16
70415;BMP280;57837;52.064;113.478;2023-05-10T11:43:59;93306.47;;;23.08
70415;BMP280;57837;52.064;113.478;2023-05-10T11:47:03;93308.72;;;22.96
70415;BMP280;57837;52.064;113.478;2023-05-10T11:50:07;93302.22;;;22.75
70415;BMP280;57837;52.064;113.478;2023-05-10T11:53:13;93308.88;;;22.60
70415;BMP280;57837;52.064;113.478;2023-05-10T11:56:16;93304.09;;;22.44
70415;BMP280;57837;52.064;113.478;2023-05-10T11:59:19;93300.38;;;22.32
70415;BMP280;57837;52.064;113.478;2023-05-10T12:02:23;93308.03;;;22.22
70415;BMP280;57837;52.064;113.478;2023-05-10T12:05:27;93302.75;;;22.14
70415;BMP280;57837;52.064;113.478;2023-05-10T12:08:31;93314.19;;;22.09
70415;BMP280;57837;52.064;113.478;2023-05-10T12:11:39;93313.13;;;22.12
70415;BMP280;57837;52.064;113.478;2023-05-10T12:14:50;93312.41;;;22.04
70415;BMP280;57837;52.064;113.478;2023-05-10T12:17:53;93321.53;;;22.03
70415;BMP280;57837;52.064;113.478;2023-05-10T12:21:03;93319.38;;;21.94
70415;BMP280;57837;52.064;113.478;2023-05-10T12:24:09;93321.94;;;21.79
70415;BMP280;57837;52.064;113.478;2023-05-10T12:27:12;93319.78;;;21.70
70415;BMP280;57837;52.064;113.478;2023-05-10T12:30:35;93325.50;;;21.61
70415;BMP280;57837;52.064;113.478;2023-05-10T12:33:40;93332.00;;;21.60
70415;BMP280;57837;52.064;113.478;2023-05-10T12:36:50;93336.53;;;21.59
70415;BMP280;57837;52.064;113.478;2023-05-10T12:39:55;93333.88;;;21.52
70415;BMP280;57837;52.064;113.478;2023-05-10T12:42:59;93341.22;;;21.46
70415;BMP280;57837;52.064;113.478;2023-05-10T12:46:14;93338.44;;;21.51
70415;BMP280;57837;52.064;113.478;2023-05-10T12:49:18;93334.34;;;21.43
70415;BMP280;57837;52.064;113.478;2023-05-10T12:52:22;93332.56;;;21.38
70415;BMP280;57837;52.064;113.478;2023-05-10T12:55:26;93336.34;;;21.29
70415;BMP280;57837;52.064;113.478;2023-05-10T12:58:29;93339.53;;;21.35
70415;BMP280;57837;52.064;113.478;2023-05-10T13:01:37;93341.88;;;21.39
70415;BMP280;57837;52.064;113.478;2023-05-10T13:04:42;93346.28;;;21.44
70415;BMP280;57837;52.064;113.478;2023-05-10T13:07:45;93338.53;;;21.38
70415;BMP280;57837;52.064;113.478;2023-05-10T13:10:50;93341.09;;;21.31
70415;BMP280;57837;52.064;113.478;2023-05-10T13:13:53;93351.38;;;21.21
70415;BMP280;57837;52.064;113.478;2023-05-10T13:16:57;93347.09;;;21.10
70415;BMP280;57837;52.064;113.478;2023-05-10T13:20:02;93347.09;;;21.10
70415;BMP280;57837;52.064;113.478;2023-05-10T13:23:06;93342.44;;;21.03
70415;BMP280;57837;52.064;113.478;2023-05-10T13:26:09;93344.44;;;20.90
70415;BMP280;57837;52.064;113.478;2023-05-10T13:29:12;93348.88;;;20.95
70415;BMP280;57837;52.064;113.478;2023-05-10T13:32:16;93342.50;;;21.11
70415;BMP280;57837;52.064;113.478;2023-05-10T13:35:20;93354.34;;;21.18
70415;BMP280;57837;52.064;113.478;2023-05-10T13:38:24;93348.44;;;21.25
70415;BMP280;57837;52.064;113.478;2023-05-10T13:41:28;93338.47;;;21.31
70415;BMP280;57837;52.064;113.478;2023-05-10T13:44:32;93334.22;;;21.28
70415;BMP280;57837;52.064;113.478;2023-05-10T13:47:36;93354.06;;;21.29
70415;BMP280;57837;52.064;113.478;2023-05-10T13:50:39;93353.69;;;21.25
70415;BMP280;57837;52.064;113.478;2023-05-10T13:53:43;93350.69;;;21.21
70415;BMP280;57837;52.064;113.478;2023-05-10T13:56:47;93348.75;;;21.21
70415;BMP280;57837;52.064;113.478;2023-05-10T13:59:51;93345.09;;;21.24
70415;BMP280;57837;52.064;113.478;2023-05-10T14:02:58;93348.75;;;21.21
70415;BMP280;57837;52.064;113.478;2023-05-10T14:06:02;93349.97;;;21.20
70415;BMP280;57837;52.064;113.478;2023-05-10T14:09:06;93353.81;;;21.19
70415;BMP280;57837;52.064;113.478;2023-05-10T14:12:10;93349.06;;;21.18
70415;BMP280;57837;52.064;113.478;2023-05-10T14:15:14;93348.16;;;21.15
70415;BMP280;57837;52.064;113.478;2023-05-10T14:18:19;93349.47;;;21.22
70415;BMP280;57837;52.064;113.478;2023-05-10T14:21:22;93337.22;;;21.32
70415;BMP280;57837;52.064;113.478;2023-05-10T14:24:26;93351.50;;;21.36
70415;BMP280;57837;52.064;113.478;2023-05-10T14:27:29;93345.84;;;21.32
70415;BMP280;57837;52.064;113.478;2023-05-10T14:30:33;93351.88;;;21.20
70415;BMP280;57837;52.064;113.478;2023-05-10T14:33:39;93348.47;;;21.11
70415;BMP280;57837;52.064;113.478;2023-05-10T14:36:43;93347.69;;;21.03
70415;BMP280;57837;52.064;113.478;2023-05-10T14:39:46;93357.28;;;20.93
70415;BMP280;57837;52.064;113.478;2023-05-10T14:42:50;93354.44;;;20.91
70415;BMP280;57837;52.064;113.478;2023-05-10T14:45:55;93356.03;;;20.94
70415;BMP280;57837;52.064;113.478;2023-05-10T14:48:59;93349.38;;;20.93
70415;BMP280;57837;52.064;113.478;2023-05-10T14:52:03;93354.34;;;20.97
70415;BMP280;57837;52.064;113.478;2023-05-10T14:55:07;93348.38;;;20.96
70415;BMP280;57837;52.064;113.478;2023-05-10T14:58:11;93348.38;;;20.96
70415;BMP280;57837;52.064;113.478;2023-05-10T15:01:15;93342.38;;;20.96
70415;BMP280;57837;52.064;113.478;2023-05-10T15:04:19;93342.81;;;20.87
70415;BMP280;57837;52.064;113.478;2023-05-10T15:07:24;93350.44;;;20.77
70415;BMP280;57837;52.064;113.478;2023-05-10T15:10:28;93340.91;;;20.74
70415;BMP280;57837;52.064;113.478;2023-05-10T15:13:33;93335.16;;;20.76
70415;BMP280;57837;52.064;113.478;2023-05-10T15:16:37;93334.56;;;20.70
70415;BMP280;57837;52.064;113.478;2023-05-10T15:19:40;93336.13;;;20.65
70415;BMP280;57837;52.064;113.478;2023-05-10T15:22:44;93337.03;;;20.68
70415;BMP280;57837;52.064;113.478;2023-05-10T15:25:47;93338.44;;;20.69
70415;BMP280;57837;52.064;113.478;2023-05-10T15:28:53;93333.09;;;20.61
70415;BMP280;57837;52.064;113.478;2023-05-10T15:31:57;93327.22;;;20.55
70415;BMP280;57837;52.064;113.478;2023-05-10T15:35:01;93321.97;;;20.55
70415;BMP280;57837;52.064;113.478;2023-05-10T15:38:06;93312.25;;;20.50
70415;BMP280;57837;52.064;113.478;2023-05-10T15:41:09;93296.47;;;20.50
70415;BMP280;57837;52.064;113.478;2023-05-10T15:44:13;93297.00;;;20.48
70415;BMP280;57837;52.064;113.478;2023-05-10T15:47:18;93284.00;;;20.43
70415;BMP280;57837;52.064;113.478;2023-05-10T15:50:21;93274.09;;;20.36
70415;BMP280;57837;52.064;113.478;2023-05-10T15:53:24;93281.38;;;20.30
70415;BMP280;57837;52.064;113.478;2023-05-10T15:56:28;93281.88;;;20.28
70415;BMP280;57837;52.064;113.478;2023-05-10T15:59:33;93278.53;;;20.28
70415;BMP280;57837;52.064;113.478;2023-05-10T16:02:39;93277.13;;;20.27
70415;BMP280;57837;52.064;113.478;2023-05-10T16:05:43;93276.94;;;20.25
70415;BMP280;57837;52.064;113.478;2023-05-10T16:08:46;93273.19;;;20.20
70415;BMP280;57837;52.064;113.478;2023-05-10T16:11:50;93278.19;;;20.10
70415;BMP280;57837;52.064;113.478;2023-05-10T16:14:54;93270.81;;;20.09
70415;BMP280;57837;52.064;113.478;2023-05-10T16:17:58;93265.56;;;20.09
70415;BMP280;57837;52.064;113.478;2023-05-10T16:21:02;93266.34;;;20.04
70415;BMP280;57837;52.064;113.478;2023-05-10T16:24:06;93261.41;;;20.00
70415;BMP280;57837;52.064;113.478;2023-05-10T16:27:10;93260.91;;;20.02
70415;BMP280;57837;52.064;113.478;2023-05-10T16:30:15;93254.75;;;19.99
70415;BMP280;57837;52.064;113.478;2023-05-10T16:33:19;93245.75;;;19.95
70415;BMP280;57837;52.064;113.478;2023-05-10T16:36:23;93239.91;;;20.02
70415;BMP280;57837;52.064;113.478;2023-05-10T16:39:27;93239.19;;;20.01
70415;BMP280;57837;52.064;113.478;2023-05-10T16:42:30;93241.19;;;19.95
70415;BMP280;57837;52.064;113.478;2023-05-10T16:45:34;93235.56;;;19.91
70415;BMP280;57837;52.064;113.478;2023-05-10T16:48:39;93236.66;;;19.96
70415;BMP280;57837;52.064;113.478;2023-05-10T16:51:42;93225.13;;;19.99
70415;BMP280;57837;52.064;113.478;2023-05-10T16:54:46;93223.13;;;19.92
70415;BMP280;57837;52.064;113.478;2023-05-10T16:57:50;93215.34;;;19.86
70415;BMP280;57837;52.064;113.478;2023-05-10T17:00:53;93206.56;;;19.84
70415;BMP280;57837;52.064;113.478;2023-05-10T17:03:57;93205.88;;;19.83
70415;BMP280;57837;52.064;113.478;2023-05-10T17:07:00;93213.03;;;19.83
70415;BMP280;57837;52.064;113.478;2023-05-10T17:10:03;93207.88;;;19.90
70415;BMP280;57837;52.064;113.478;2023-05-10T17:13:07;93219.50;;;19.82
70415;BMP280;57837;52.064;113.478;2023-05-10T17:16:11;93218.41;;;19.64
70415;BMP280;57837;52.064;113.478;2023-05-10T17:19:16;93222.75;;;19.35
70415;BMP280;57837;52.064;113.478;2023-05-10T17:22:19;93222.94;;;19.24
70415;BMP280;57837;52.064;113.478;2023-05-10T17:25:22;93226.06;;;19.23
70415;BMP280;57837;52.064;113.478;2023-05-10T17:28:26;93220.13;;;19.22
70415;BMP280;57837;52.064;113.478;2023-05-10T17:31:29;93221.81;;;19.20
70415;BMP280;57837;52.064;113.478;2023-05-10T17:34:59;93219.91;;;19.07
70415;BMP280;57837;52.064;113.478;2023-05-10T17:38:03;93218.78;;;19.02
70415;BMP280;57837;52.064;113.478;2023-05-10T17:41:07;93220.56;;;18.94
70415;BMP280;57837;52.064;113.478;2023-05-10T17:44:10;93216.38;;;18.73